Time;durP1;ratioP1;P1;durP2;ratioP2;P2;SDS_P1;SDS_P2;PMS_P1;PMS_P2;Temp;Humidity;BMP_temperature;BMP_pressure;BME280_temperature;BME280_humidity;BME280_pressure;Samples;Min_cycle;Max_cycle;Signal;HPM_P1;HPM_P2
2023/10/16 00:02:12;;;;;;;8.20;2.67;;;;;;;9.52;51.58;98079.97;5031779;28;20426;-69
2023/10/16 00:04:43;;;;;;;2.73;2.53;;;;;;;9.51;51.82;98080.13;5027676;28;20712;-69
2023/10/16 00:07:13;;;;;;;4.20;2.50;;;;;;;9.38;52.20;98086.34;5029226;28;20482;-69
2023/10/16 00:09:40;;;;;;;3.90;2.67;;;;;;;9.36;51.76;98079.56;5029774;28;20946;-68
2023/10/16 00:12:09;;;;;;;4.33;2.80;;;;;;;9.30;52.06;98075.66;5032691;28;20427;-69
2023/10/16 00:14:35;;;;;;;5.90;2.50;;;;;;;9.33;52.10;98075.41;5025558;28;20434;-69
2023/10/16 00:17:07;;;;;;;3.67;2.40;;;;;;;9.38;52.22;98068.03;5027779;28;20465;-69
2023/10/16 00:19:37;;;;;;;5.20;2.47;;;;;;;9.37;51.77;98070.78;5039335;28;20433;-69
2023/10/16 00:22:15;;;;;;;3.10;2.27;;;;;;;9.25;51.97;98069.97;5026897;28;20423;-69
2023/10/16 00:24:45;;;;;;;2.70;2.07;;;;;;;9.24;51.85;98065.69;5021942;28;20493;-69
2023/10/16 00:27:14;;;;;;;3.27;2.17;;;;;;;9.18;51.89;98063.56;5018074;28;20844;-69
2023/10/16 00:29:41;;;;;;;4.93;2.10;;;;;;;9.18;52.26;98061.78;5027970;28;20460;-70
2023/10/16 00:32:07;;;;;;;3.40;2.10;;;;;;;9.13;51.96;98065.72;5032788;28;20430;-69
2023/10/16 00:34:33;;;;;;;5.93;2.13;;;;;;;9.09;52.13;98059.06;5025212;28;20430;-69
2023/10/16 00:37:01;;;;;;;3.97;2.20;;;;;;;9.05;52.25;98061.09;5033409;28;20211;-70
2023/10/16 00:39:28;;;;;;;2.77;2.10;;;;;;;8.94;52.34;98058.50;5028807;28;20439;-70
2023/10/16 00:41:57;;;;;;;2.83;2.40;;;;;;;9.00;52.56;98048.38;5027822;28;20425;-69
2023/10/16 00:44:23;;;;;;;4.00;2.20;;;;;;;9.07;52.05;98048.72;5028130;28;20415;-70
2023/10/16 00:46:49;;;;;;;2.77;2.37;;;;;;;9.06;52.43;98045.28;5035982;28;20475;-69
2023/10/16 00:49:18;;;;;;;2.63;2.43;;;;;;;8.97;52.24;98043.38;5030229;28;20510;-69
2023/10/16 00:51:45;;;;;;;3.60;2.10;;;;;;;8.96;52.32;98048.75;5027426;28;20192;-69
2023/10/16 00:54:16;;;;;;;2.90;2.10;;;;;;;8.97;51.93;98047.78;5045038;28;20977;-69
2023/10/16 00:56:51;;;;;;;3.50;2.00;;;;;;;8.88;52.29;98039.72;5031125;28;20947;-69
2023/10/16 00:59:16;;;;;;;10.53;2.07;;;;;;;8.89;52.18;98030.09;5022770;28;20433;-69
2023/10/16 01:01:46;;;;;;;2.80;1.63;;;;;;;8.94;52.41;98030.56;5037461;28;20430;-69
2023/10/16 01:04:13;;;;;;;3.17;1.83;;;;;;;8.97;51.88;98026.88;5040075;28;20260;-69
2023/10/16 01:06:41;;;;;;;2.27;1.90;;;;;;;8.82;52.08;98023.72;5039076;28;20842;-68
2023/10/16 01:09:12;;;;;;;7.23;1.70;;;;;;;8.86;52.24;98025.94;5033535;28;20444;-69
2023/10/16 01:11:38;;;;;;;3.23;1.90;;;;;;;8.76;52.34;98020.63;5027548;28;20424;-69
2023/10/16 01:14:06;;;;;;;3.53;1.90;;;;;;;8.72;52.43;98019.19;5024849;28;20517;-68
2023/10/16 01:16:32;;;;;;;5.00;2.10;;;;;;;8.62;52.82;98010.41;5023331;28;20215;-68
2023/10/16 01:19:00;;;;;;;3.83;2.07;;;;;;;8.73;52.69;98017.41;5026735;28;20429;-69
2023/10/16 01:21:32;;;;;;;3.80;1.63;;;;;;;8.74;52.20;98014.66;5033869;28;20214;-70
2023/10/16 01:24:03;;;;;;;2.60;2.23;;;;;;;8.59;52.62;98013.25;5027240;28;20430;-70
2023/10/16 01:26:29;;;;;;;3.43;1.63;;;;;;;8.65;52.78;98006.72;5042472;28;20469;-69
2023/10/16 01:28:55;;;;;;;2.50;2.00;;;;;;;8.63;52.86;98004.22;5033913;28;20429;-68
2023/10/16 01:31:21;;;;;;;4.63;1.70;;;;;;;8.65;52.57;98002.34;5042835;28;20445;-68
2023/10/16 01:33:47;;;;;;;2.13;1.93;;;;;;;8.64;52.39;98005.91;5022599;28;20723;-68
2023/10/16 01:36:13;;;;;;;3.07;1.90;;;;;;;8.56;52.57;98008.28;5030969;28;20192;-68
2023/10/16 01:38:39;;;;;;;5.33;2.27;;;;;;;8.53;52.45;98011.13;5038175;28;20448;-68
2023/10/16 01:41:05;;;;;;;2.50;2.10;;;;;;;8.48;52.45;98000.19;5036647;28;20434;-69
2023/10/16 01:43:37;;;;;;;2.07;1.70;;;;;;;8.40;52.81;98005.97;5033866;28;20453;-69
2023/10/16 01:46:03;;;;;;;4.97;2.57;;;;;;;8.46;52.84;98003.72;5030284;28;20219;-69
2023/10/16 01:48:29;;;;;;;2.60;1.80;;;;;;;8.53;52.49;98001.50;5030312;28;20537;-70
2023/10/16 01:50:55;;;;;;;2.50;2.27;;;;;;;8.44;51.99;98008.22;5023036;28;21194;-69
2023/10/16 01:53:25;;;;;;;3.33;1.83;;;;;;;8.40;52.49;98009.44;5029597;28;20191;-70
2023/10/16 01:55:51;;;;;;;3.20;2.60;;;;;;;8.30;52.26;98005.88;5036826;28;20474;-68
2023/10/16 01:58:17;;;;;;;2.47;1.90;;;;;;;8.29;52.88;98006.84;5036216;28;20512;-70
2023/10/16 02:00:43;;;;;;;4.67;2.47;;;;;;;8.32;52.96;98001.34;5030049;28;20434;-69
2023/10/16 02:03:09;;;;;;;4.07;2.20;;;;;;;8.33;52.51;97997.78;5033489;28;20988;-68
2023/10/16 02:05:34;;;;;;;3.83;2.50;;;;;;;8.29;52.50;97999.00;5030470;28;20672;-68
2023/10/16 02:08:00;;;;;;;3.90;2.40;;;;;;;8.28;52.09;97989.50;5029890;28;20631;-69
2023/10/16 02:10:25;;;;;;;3.07;2.37;;;;;;;8.29;52.59;97988.56;5030429;28;20555;-68
2023/10/16 02:12:51;;;;;;;2.57;2.10;;;;;;;8.23;52.63;97984.63;5039670;28;20183;-69
2023/10/16 02:15:21;;;;;;;4.93;2.20;;;;;;;8.24;52.37;97980.22;5036882;28;20696;-69
2023/10/16 02:17:49;;;;;;;2.83;2.40;;;;;;;8.22;52.11;97975.13;5029221;28;20225;-68
2023/10/16 02:20:16;;;;;;;3.20;2.17;;;;;;;8.22;52.53;97977.75;5030127;28;20441;-69
2023/10/16 02:22:41;;;;;;;5.00;2.57;;;;;;;8.23;52.38;97981.16;5029752;28;20938;-69
2023/10/16 02:25:17;;;;;;;2.30;2.10;;;;;;;8.21;52.32;97975.22;5038657;28;20429;-68
2023/10/16 02:27:43;;;;;;;4.40;2.43;;;;;;;8.21;52.79;97973.47;5036887;28;20211;-69
2023/10/16 02:32:53;;;;;;;5.67;1.70;;;;;;;8.21;52.37;97975.22;5029557;28;20430;-68
2023/10/16 02:35:21;;;;;;;2.53;2.27;;;;;;;8.15;52.61;97979.16;5030374;28;21149;-69
2023/10/16 02:37:53;;;;;;;2.90;1.90;;;;;;;8.14;52.57;97973.09;5028714;28;20962;-70
2023/10/16 02:40:20;;;;;;;2.60;2.10;;;;;;;8.12;52.74;97969.78;5039249;28;20438;-67
2023/10/16 02:43:00;;;;;;;2.77;1.80;;;;;;;8.11;52.76;97969.91;5036711;28;20442;-69
2023/10/16 02:45:26;;;;;;;2.03;1.93;;;;;;;8.12;52.87;97968.97;5029514;28;20436;-67
2023/10/16 02:47:53;;;;;;;4.20;2.30;;;;;;;8.06;52.11;97967.66;5033745;28;20569;-69
2023/10/16 02:50:19;;;;;;;2.60;2.00;;;;;;;8.03;52.29;97972.25;5036366;28;20437;-68
2023/10/16 02:52:46;;;;;;;2.43;2.00;;;;;;;7.96;52.45;97964.06;5041801;28;20462;-69
2023/10/16 02:55:11;;;;;;;2.23;1.80;;;;;;;7.97;52.94;97968.34;5043094;28;21125;-69
2023/10/16 02:57:40;;;;;;;2.80;2.03;;;;;;;7.90;52.31;97967.16;5028600;28;20441;-68
2023/10/16 03:00:17;;;;;;;2.37;1.93;;;;;;;7.95;53.03;97965.84;5029290;28;20191;-69
2023/10/16 03:02:46;;;;;;;3.03;2.07;;;;;;;7.89;53.07;97968.09;5033000;28;20450;-70
2023/10/16 03:05:21;;;;;;;2.50;2.27;;;;;;;7.87;52.87;97970.84;5033871;28;20471;-69
2023/10/16 03:07:51;;;;;;;2.73;2.53;;;;;;;7.83;52.87;97970.22;5031573;28;20877;-69
2023/10/16 03:10:17;;;;;;;2.43;2.17;;;;;;;7.82;52.23;97976.38;5042182;28;20487;-69
2023/10/16 03:12:43;;;;;;;3.60;2.03;;;;;;;7.78;52.44;97961.06;5043062;28;20426;-67
2023/10/16 03:15:15;;;;;;;2.67;2.00;;;;;;;7.71;52.89;97968.53;5048424;28;20196;-69
2023/10/16 03:17:41;;;;;;;2.57;2.37;;;;;;;7.68;52.55;97972.22;5036917;28;20463;-70
2023/10/16 03:20:35;;;;;;;2.63;2.13;;;;;;;7.70;52.49;97969.47;5036131;28;20819;-69
2023/10/16 03:23:01;;;;;;;2.67;2.47;;;;;;;7.61;53.27;97972.78;5018115;28;21937;-69
2023/10/16 03:25:50;;;;;;;2.53;2.00;;;;;;;7.64;52.60;97975.16;5033434;28;20462;-68
2023/10/16 03:28:17;;;;;;;3.03;2.40;;;;;;;7.61;53.49;97975.38;5024603;28;20210;-70
2023/10/16 03:30:43;;;;;;;4.13;2.47;;;;;;;7.56;52.90;97973.13;5024461;28;20446;-69
2023/10/16 03:33:13;;;;;;;2.60;2.40;;;;;;;7.60;53.35;97971.97;5026856;28;20438;-68
2023/10/16 03:35:43;;;;;;;2.30;1.93;;;;;;;7.64;53.07;97965.56;5032138;28;20195;-68
2023/10/16 03:38:10;;;;;;;5.47;2.30;;;;;;;7.54;52.98;97969.81;5030906;28;20484;-68
2023/10/16 03:40:36;;;;;;;5.07;2.60;;;;;;;7.50;53.50;97960.53;5031419;28;20434;-69
2023/10/16 03:43:01;;;;;;;2.30;1.83;;;;;;;7.58;53.50;97967.78;5028414;28;20438;-68
2023/10/16 03:45:28;;;;;;;2.60;2.23;;;;;;;7.64;52.76;97955.13;5036538;28;20206;-70
2023/10/16 03:47:57;;;;;;;4.30;2.40;;;;;;;7.67;52.83;97956.69;5030264;28;20761;-70
2023/10/16 03:50:34;;;;;;;3.73;2.33;;;;;;;7.64;52.57;97955.13;5023138;28;20525;-68
2023/10/16 03:53:01;;;;;;;3.90;2.50;;;;;;;7.57;52.86;97963.50;5035560;28;20434;-67
2023/10/16 03:55:27;;;;;;;2.60;2.30;;;;;;;7.61;52.96;97957.13;5033299;28;20495;-68
2023/10/16 03:57:56;;;;;;;2.30;2.00;;;;;;;7.58;52.80;97945.16;5039255;28;20446;-67
2023/10/16 04:00:56;;;;;;;3.40;2.07;;;;;;;7.61;52.93;97944.09;5032487;28;20453;-67
2023/10/16 04:03:15;;;;;;;2.87;2.47;;;;;;;7.60;53.06;97948.47;5031913;28;20442;-68
2023/10/16 04:05:46;;;;;;;2.87;1.97;;;;;;;7.50;52.60;97956.16;5028137;28;20431;-68
2023/10/16 04:08:15;;;;;;;2.57;2.03;;;;;;;7.44;53.05;97964.44;5031171;28;20446;-67
2023/10/16 04:10:48;;;;;;;2.57;2.13;;;;;;;7.46;53.13;97941.69;5030867;28;20799;-66
2023/10/16 04:13:14;;;;;;;3.77;2.30;;;;;;;7.45;53.26;97945.22;5027383;28;20423;-67
2023/10/16 04:18:17;;;;;;;3.87;2.27;;;;;;;7.43;52.89;97954.97;5034265;28;20458;-69
2023/10/16 04:20:43;;;;;;;2.30;2.10;;;;;;;7.47;52.79;97951.16;5027965;28;20492;-67
2023/10/16 04:23:29;;;;;;;3.67;2.30;;;;;;;7.50;52.87;97956.16;5031195;28;20435;-68
2023/10/16 04:34:31;;;;;;;3.53;2.90;;;;;;;7.43;53.24;97936.72;5025724;28;20430;-67
2023/10/16 04:47:42;;;;;;;4.37;2.87;;;;;;;7.34;52.83;97926.94;5026623;28;20909;-69
2023/10/16 04:50:09;;;;;;;4.97;2.60;;;;;;;7.40;53.32;97921.28;5037998;28;20444;-69
2023/10/16 04:53:06;;;;;;;5.00;3.07;;;;;;;7.25;53.08;97919.81;5028660;28;20192;-68
2023/10/16 06:16:20;;;;;;;8.53;4.97;;;;;;;7.07;54.58;97920.22;5029899;28;20943;-68
2023/10/16 06:18:47;;;;;;;9.33;5.10;;;;;;;7.23;54.65;97922.53;5030224;28;20434;-68
2023/10/16 06:21:15;;;;;;;7.63;5.30;;;;;;;7.30;53.83;97915.09;5030107;28;20442;-68
2023/10/16 06:23:42;;;;;;;7.30;5.17;;;;;;;7.45;54.05;97913.09;5030695;28;20426;-67
2023/10/16 06:26:08;;;;;;;9.30;4.60;;;;;;;7.57;53.89;97911.34;5034517;28;20458;-69
2023/10/16 06:28:34;;;;;;;10.73;4.40;;;;;;;7.67;53.45;97917.53;5041238;28;20437;-69
2023/10/16 06:31:00;;;;;;;7.67;4.67;;;;;;;7.63;53.78;97921.31;5041826;28;21084;-69
2023/10/16 06:33:25;;;;;;;6.13;4.60;;;;;;;7.62;53.53;97917.91;5035844;28;20441;-68
2023/10/16 06:35:52;;;;;;;8.60;4.73;;;;;;;7.74;53.59;97921.34;5030517;28;20215;-68
2023/10/16 06:38:21;;;;;;;8.60;4.37;;;;;;;7.83;53.67;97919.81;5037975;28;20789;-66
2023/10/16 06:40:46;;;;;;;5.60;4.60;;;;;;;7.89;53.68;97926.34;5031648;28;20525;-68
2023/10/16 06:43:13;;;;;;;4.90;4.40;;;;;;;7.89;53.42;97921.13;5032548;28;20433;-68
2023/10/16 06:45:49;;;;;;;8.67;4.80;;;;;;;8.05;53.50;97926.84;5037871;28;20183;-70
2023/10/16 06:48:15;;;;;;;8.27;5.10;;;;;;;8.10;53.85;97923.84;5044004;28;20812;-68
2023/10/16 06:51:05;;;;;;;6.40;4.80;;;;;;;8.09;54.26;97922.19;5039902;28;20441;-67
2023/10/16 06:53:33;;;;;;;7.30;4.97;;;;;;;8.14;54.23;97917.44;5034255;28;20191;-69
2023/10/16 06:55:59;;;;;;;7.33;4.93;;;;;;;8.22;53.84;97922.91;5033630;28;20433;-68
2023/10/16 06:58:25;;;;;;;13.33;4.73;;;;;;;8.24;54.70;97925.38;5029351;28;20486;-67
2023/10/16 07:00:55;;;;;;;8.27;5.03;;;;;;;8.42;54.63;97923.09;5038109;28;20458;-67
2023/10/16 07:03:20;;;;;;;8.50;5.77;;;;;;;8.50;54.57;97926.00;5038958;28;20191;-68
2023/10/16 07:05:48;;;;;;;8.70;6.40;;;;;;;8.48;54.61;97927.03;5034843;28;20693;-68
2023/10/16 07:08:18;;;;;;;10.33;6.80;;;;;;;8.55;54.81;97929.06;5031845;28;20286;-69
2023/10/16 07:10:52;;;;;;;9.60;7.50;;;;;;;8.61;54.73;97922.50;5029915;28;20793;-68
2023/10/16 07:13:27;;;;;;;11.23;8.20;;;;;;;8.67;54.32;97927.25;5039401;28;20419;-68
2023/10/16 07:15:54;;;;;;;11.73;7.73;;;;;;;8.74;54.77;97933.66;5037482;28;20426;-68
2023/10/16 07:18:24;;;;;;;10.80;7.20;;;;;;;8.87;54.31;97930.03;5029262;28;20438;-68
2023/10/16 07:21:09;;;;;;;8.63;6.80;;;;;;;8.96;54.15;97920.63;5034482;28;20922;-69
2023/10/16 07:23:36;;;;;;;15.03;6.70;;;;;;;9.13;54.62;97919.25;5029772;28;20422;-67
2023/10/16 07:26:16;;;;;;;6.93;6.10;;;;;;;9.23;54.64;97917.53;5034143;28;20427;-69
2023/10/16 07:28:48;;;;;;;8.50;6.07;;;;;;;9.37;54.80;97919.03;5026318;28;20440;-70
2023/10/16 07:31:14;;;;;;;9.67;4.83;;;;;;;9.44;54.39;97914.13;5024197;28;20431;-68
2023/10/16 07:33:41;;;;;;;11.87;5.60;;;;;;;9.49;54.38;97904.94;5025568;28;20431;-68
2023/10/16 07:36:11;;;;;;;8.60;6.43;;;;;;;9.54;54.38;97915.00;5027519;28;20523;-68
2023/10/16 07:38:38;;;;;;;14.00;6.27;;;;;;;9.57;54.50;97920.00;5013419;28;20829;-67
2023/10/16 07:41:03;;;;;;;13.00;5.97;;;;;;;9.60;54.64;97913.66;5028793;28;20435;-68
2023/10/16 07:43:36;;;;;;;8.80;5.30;;;;;;;9.69;54.76;97912.88;5042379;28;20775;-70
2023/10/16 07:48:42;;;;;;;12.53;5.40;;;;;;;10.01;54.58;97911.94;5036873;28;20430;-70
2023/10/16 07:51:10;;;;;;;21.23;6.33;;;;;;;10.15;54.26;97902.91;5028276;28;20431;-71
2023/10/16 07:53:37;;;;;;;9.33;5.10;;;;;;;10.34;53.74;97911.75;5036231;28;20466;-70
2023/10/16 07:56:03;;;;;;;5.77;5.20;;;;;;;10.53;53.92;97919.72;5031227;28;20492;-70
2023/10/16 07:58:47;;;;;;;9.07;5.37;;;;;;;10.87;53.49;97913.28;5037694;28;20459;-71
2023/10/16 08:03:41;;;;;;;7.00;4.90;;;;;;;11.58;50.86;97906.88;5030960;28;20429;-68
2023/10/16 08:06:11;;;;;;;4.90;4.40;;;;;;;11.81;50.32;97904.75;5028619;28;20207;-70
2023/10/16 08:08:38;;;;;;;8.33;4.60;;;;;;;11.98;49.29;97902.38;5030694;28;20900;-69
2023/10/16 08:11:12;;;;;;;11.27;4.47;;;;;;;12.22;49.30;97901.06;5032929;28;20423;-68
2023/10/16 08:13:46;;;;;;;6.10;4.63;;;;;;;12.50;48.88;97911.53;5030641;28;21125;-70
2023/10/16 08:16:25;;;;;;;11.83;4.90;;;;;;;12.73;47.48;97906.69;5034406;28;20422;-70
2023/10/16 08:18:52;;;;;;;4.40;3.90;;;;;;;13.11;47.49;97902.13;5021570;28;20430;-69
2023/10/16 08:21:25;;;;;;;6.43;4.07;;;;;;;13.45;45.85;97908.50;5021622;28;20435;-70
2023/10/16 08:23:58;;;;;;;5.90;3.90;;;;;;;13.84;46.26;97902.84;5028586;28;20435;-69
2023/10/16 08:26:30;;;;;;;6.53;3.60;;;;;;;14.19;43.93;97906.31;5025044;28;20974;-69
2023/10/16 08:29:12;;;;;;;6.60;3.80;;;;;;;14.51;44.45;97907.41;5028132;28;20594;-69
2023/10/16 08:31:41;;;;;;;6.00;4.27;;;;;;;14.74;43.04;97901.56;5031120;28;20453;-70
2023/10/16 08:34:21;;;;;;;4.00;3.37;;;;;;;15.00;42.42;97901.44;5024759;28;20908;-68
2023/10/16 08:36:50;;;;;;;6.63;3.90;;;;;;;15.29;42.25;97904.56;5033824;28;20448;-69
2023/10/16 08:39:17;;;;;;;3.43;3.13;;;;;;;15.34;41.61;97903.09;5027517;28;20430;-69
2023/10/16 08:41:43;;;;;;;4.17;2.90;;;;;;;15.36;41.21;97910.88;5022960;28;20444;-69
2023/10/16 08:44:15;;;;;;;5.10;2.83;;;;;;;15.54;40.87;97907.19;5036384;28;20927;-69
2023/10/16 08:49:37;;;;;;;2.60;2.33;;;;;;;15.49;39.96;97921.75;5039670;28;20430;-69
2023/10/16 08:52:09;;;;;;;4.90;3.00;;;;;;;15.65;39.98;97920.91;5023691;28;20484;-71
2023/10/16 08:57:18;;;;;;;5.97;2.80;;;;;;;15.48;38.58;97930.66;5036313;28;20445;-70
2023/10/16 08:59:46;;;;;;;3.67;2.63;;;;;;;15.50;39.75;97923.38;5026120;28;20477;-69
2023/10/16 09:02:12;;;;;;;9.93;3.23;;;;;;;15.62;40.02;97920.41;5027474;28;20988;-70
2023/10/16 09:04:40;;;;;;;4.93;2.93;;;;;;;15.89;39.03;97906.03;5026800;28;20439;-70
2023/10/16 09:07:06;;;;;;;4.30;2.67;;;;;;;16.03;38.85;97908.97;5027763;28;20954;-70
2023/10/16 09:09:32;;;;;;;4.90;2.83;;;;;;;16.12;38.92;97906.13;5026887;28;20422;-70
2023/10/16 09:12:09;;;;;;;3.20;2.70;;;;;;;16.33;38.88;97904.72;5035975;28;20578;-70
2023/10/16 09:14:37;;;;;;;4.37;3.10;;;;;;;16.63;38.69;97902.25;5040365;28;20191;-69
2023/10/16 09:17:06;;;;;;;5.03;3.60;;;;;;;16.59;38.55;97900.94;5037064;28;20442;-69
2023/10/16 09:19:35;;;;;;;4.30;3.80;;;;;;;16.77;38.40;97894.53;5037993;28;20462;-69
2023/10/16 09:22:08;;;;;;;7.67;3.23;;;;;;;17.06;38.46;97882.47;5037106;28;20430;-70
2023/10/16 09:24:35;;;;;;;4.03;3.10;;;;;;;17.29;37.67;97887.75;5035571;28;20433;-69
2023/10/16 09:27:10;;;;;;;6.30;3.63;;;;;;;17.57;37.28;97887.19;5031094;28;20466;-69
2023/10/16 09:29:35;;;;;;;5.23;4.03;;;;;;;17.94;36.28;97883.63;5026117;28;20460;-70
2023/10/16 09:32:02;;;;;;;7.37;3.77;;;;;;;18.10;36.77;97887.97;5028805;28;20431;-69
2023/10/16 09:34:28;;;;;;;7.10;3.43;;;;;;;18.29;35.33;97884.91;5037074;28;20192;-70
2023/10/16 09:37:15;;;;;;;5.20;3.70;;;;;;;18.61;35.55;97888.16;5042614;28;20449;-70
2023/10/16 09:39:40;;;;;;;4.77;3.40;;;;;;;18.78;34.57;97876.28;5032816;28;20606;-69
2023/10/16 09:42:12;;;;;;;6.50;3.40;;;;;;;18.83;34.03;97881.88;5027645;28;20961;-68
2023/10/16 09:44:44;;;;;;;4.33;3.03;;;;;;;19.15;33.79;97868.28;5037656;28;20952;-70
2023/10/16 09:47:30;;;;;;;6.57;2.70;;;;;;;19.53;33.45;97872.50;5043278;28;20541;-70
2023/10/16 09:50:01;;;;;;;8.50;2.60;;;;;;;19.67;32.53;97860.91;5027964;28;20630;-69
2023/10/16 09:52:32;;;;;;;4.43;2.97;;;;;;;19.64;32.28;97853.34;5038738;28;20433;-69
2023/10/16 09:54:59;;;;;;;6.30;2.60;;;;;;;19.82;32.18;97852.84;5038156;28;21036;-70
2023/10/16 09:57:29;;;;;;;8.90;2.27;;;;;;;20.25;32.33;97847.31;5036116;28;20454;-67
2023/10/16 09:59:54;;;;;;;8.53;2.77;;;;;;;20.41;30.68;97846.13;5033193;28;20417;-69
2023/10/16 10:02:25;;;;;;;6.07;2.90;;;;;;;20.40;31.20;97852.50;5029967;28;20434;-70
2023/10/16 10:05:03;;;;;;;3.50;2.33;;;;;;;20.31;30.82;97851.03;5025047;28;20763;-71
2023/10/16 10:07:34;;;;;;;3.50;2.87;;;;;;;20.30;30.93;97848.56;5040030;28;20476;-70
2023/10/16 10:10:39;;;;;;;6.43;3.17;;;;;;;20.39;30.93;97842.88;5035030;28;20448;-70
2023/10/16 10:12:49;;;;;;;8.10;3.10;;;;;;;20.36;30.55;97848.59;5035943;28;20476;-71
2023/10/16 10:15:25;;;;;;;5.23;2.80;;;;;;;20.33;31.80;97854.31;5024560;28;20426;-69
2023/10/16 10:17:55;;;;;;;4.60;3.30;;;;;;;20.39;30.67;97845.53;5025828;28;20469;-70
2023/10/16 10:20:25;;;;;;;4.20;2.73;;;;;;;20.71;30.41;97851.16;5037341;28;20961;-68
2023/10/16 10:22:56;;;;;;;3.63;3.13;;;;;;;20.52;30.52;97857.25;5042761;28;20454;-70
2023/10/16 10:25:28;;;;;;;8.10;3.33;;;;;;;20.81;29.97;97856.13;5033799;28;20484;-70
2023/10/16 10:27:55;;;;;;;6.40;3.50;;;;;;;20.99;30.77;97852.84;5032754;28;20490;-71
2023/10/16 10:30:25;;;;;;;6.80;3.17;;;;;;;21.33;29.53;97843.00;5026502;28;20441;-70
2023/10/16 10:32:55;;;;;;;4.03;2.90;;;;;;;21.62;29.77;97846.31;5035661;28;20430;-69
2023/10/16 10:35:28;;;;;;;6.83;3.00;;;;;;;21.86;28.64;97840.50;5033818;28;20458;-70
2023/10/16 10:38:07;;;;;;;9.67;4.07;;;;;;;21.65;29.43;97839.72;5020281;28;20658;-69
2023/10/16 10:40:36;;;;;;;9.13;3.77;;;;;;;21.87;29.15;97836.78;5029823;28;20434;-69
2023/10/16 10:43:05;;;;;;;8.33;3.23;;;;;;;21.87;29.38;97831.44;5041284;28;20449;-69
2023/10/16 10:45:34;;;;;;;10.97;5.77;;;;;;;22.14;29.41;97837.53;5033645;28;20431;-69
2023/10/16 10:48:12;;;;;;;6.33;2.80;;;;;;;21.81;27.05;97843.78;5039812;28;20466;-70
2023/10/16 10:50:38;;;;;;;3.67;1.87;;;;;;;21.78;27.02;97828.22;5029034;28;21018;-71
2023/10/16 10:53:14;;;;;;;3.77;2.40;;;;;;;21.13;27.80;97831.56;5037850;28;20859;-69
2023/10/16 10:55:55;;;;;;;3.83;2.77;;;;;;;21.32;28.74;97833.38;5035302;28;20892;-71
2023/10/16 10:58:24;;;;;;;5.90;2.40;;;;;;;21.48;28.60;97828.66;5036178;28;20542;-70
2023/10/16 11:00:50;;;;;;;8.77;3.10;;;;;;;21.88;29.57;97817.09;5025183;28;20434;-70
2023/10/16 11:03:41;;;;;;;7.60;2.83;;;;;;;22.02;28.41;97817.88;5034163;28;20466;-71
2023/10/16 11:06:15;;;;;;;5.50;2.90;;;;;;;22.02;28.50;97808.00;5017949;28;20430;-70
2023/10/16 11:08:41;;;;;;;4.23;2.67;;;;;;;22.02;28.85;97820.53;5035797;28;20553;-69
2023/10/16 11:11:10;;;;;;;4.60;2.77;;;;;;;21.99;28.28;97808.44;5032292;28;21003;-70
2023/10/16 11:13:44;;;;;;;5.83;2.60;;;;;;;21.65;27.27;97809.59;5026365;28;20423;-70
2023/10/16 11:16:09;;;;;;;8.47;2.50;;;;;;;21.48;27.89;97800.13;5029363;28;20435;-69
2023/10/16 11:18:37;;;;;;;2.53;2.30;;;;;;;21.75;28.25;97796.63;5027501;28;20458;-70
2023/10/16 11:21:06;;;;;;;6.27;2.80;;;;;;;21.69;28.55;97790.28;5031833;28;20656;-70
2023/10/16 11:23:32;;;;;;;5.93;2.47;;;;;;;21.71;28.13;97784.72;5021330;28;20484;-70
2023/10/16 11:26:05;;;;;;;9.80;2.10;;;;;;;21.90;27.88;97781.19;5042079;28;20430;-69
2023/10/16 11:28:35;;;;;;;4.10;2.63;;;;;;;21.90;28.78;97775.84;5029105;28;20446;-70
2023/10/16 11:31:01;;;;;;;2.80;2.10;;;;;;;21.81;28.04;97768.28;5025576;28;20453;-70
2023/10/16 11:33:47;;;;;;;3.03;2.10;;;;;;;21.67;28.33;97764.84;5024081;28;20843;-70
2023/10/16 11:36:16;;;;;;;3.30;1.70;;;;;;;21.83;28.42;97767.03;5028444;28;20966;-72
2023/10/16 11:38:44;;;;;;;5.40;1.80;;;;;;;21.97;28.12;97753.63;5029491;28;20525;-71
2023/10/16 11:41:16;;;;;;;4.50;1.70;;;;;;;22.24;27.41;97752.47;5042421;28;20426;-70
2023/10/16 11:43:51;;;;;;;4.20;1.50;;;;;;;22.27;27.07;97748.56;5031171;28;20438;-69
2023/10/16 11:46:28;;;;;;;3.40;1.60;;;;;;;22.39;26.65;97754.03;5029099;28;20485;-70
2023/10/16 11:49:17;;;;;;;3.20;1.87;;;;;;;22.31;26.36;97749.78;5025769;28;20426;-71
2023/10/16 11:51:45;;;;;;;4.37;2.17;;;;;;;22.37;26.96;97745.41;5022349;28;20908;-70
2023/10/16 11:54:11;;;;;;;2.60;1.57;;;;;;;22.32;25.60;97730.06;5030437;28;20422;-70
2023/10/16 11:56:36;;;;;;;2.47;1.50;;;;;;;21.92;26.68;97730.28;5030576;28;20419;-69
2023/10/16 11:59:03;;;;;;;3.10;1.50;;;;;;;21.86;26.44;97731.94;5032239;28;20433;-69
2023/10/16 12:01:30;;;;;;;3.43;1.87;;;;;;;21.59;26.61;97725.88;5028200;28;20583;-71
2023/10/16 12:03:56;;;;;;;3.30;1.70;;;;;;;21.56;26.57;97728.94;5034408;28;20446;-69
2023/10/16 12:06:21;;;;;;;3.77;1.60;;;;;;;21.63;27.13;97729.75;5035279;28;20462;-68
2023/10/16 12:08:47;;;;;;;2.27;1.80;;;;;;;21.68;27.28;97715.78;5036878;28;20504;-69
2023/10/16 12:11:14;;;;;;;1.90;1.50;;;;;;;21.59;26.99;97713.38;5011158;28;20172;-68
2023/10/16 12:13:40;;;;;;;3.07;1.60;;;;;;;21.69;27.27;97722.78;5028939;28;20423;-69
2023/10/16 12:16:06;;;;;;;2.07;1.70;;;;;;;21.76;27.07;97711.03;5030150;28;20425;-71
2023/10/16 12:18:32;;;;;;;4.33;1.70;;;;;;;21.75;27.41;97701.41;5009155;28;20575;-69
2023/10/16 12:21:04;;;;;;;5.20;1.87;;;;;;;21.71;26.76;97699.38;5027712;28;20192;-70
2023/10/16 12:23:42;;;;;;;1.70;1.60;;;;;;;21.71;26.82;97699.38;5024567;28;20687;-69
2023/10/16 12:26:07;;;;;;;3.73;2.33;;;;;;;21.82;26.52;97689.91;5031958;28;20803;-70
2023/10/16 12:28:33;;;;;;;2.50;2.00;;;;;;;21.67;26.96;97692.84;5030611;28;20458;-70
2023/10/16 12:30:59;;;;;;;1.80;1.63;;;;;;;21.66;26.35;97686.69;5027785;28;20349;-71
2023/10/16 12:33:27;;;;;;;2.27;1.57;;;;;;;21.51;27.00;97678.94;5027016;28;20537;-69
2023/10/16 12:35:55;;;;;;;2.23;1.77;;;;;;;21.61;27.23;97679.31;5029196;28;20219;-71
2023/10/16 12:38:24;;;;;;;3.30;1.70;;;;;;;21.63;27.67;97671.94;5033250;28;20453;-71
2023/10/16 12:40:53;;;;;;;2.37;2.17;;;;;;;21.61;27.75;97671.31;5027982;28;20476;-70
2023/10/16 12:43:20;;;;;;;6.30;1.80;;;;;;;21.54;27.85;97672.34;5039436;28;20433;-70
2023/10/16 12:45:46;;;;;;;2.97;1.50;;;;;;;21.68;26.96;97670.44;5033251;28;20517;-70
2023/10/16 12:48:11;;;;;;;1.73;1.50;;;;;;;21.78;26.10;97663.63;5034919;28;20899;-69
2023/10/16 12:50:37;;;;;;;1.50;1.20;;;;;;;21.67;25.56;97660.84;5032349;28;20196;-69
2023/10/16 12:53:03;;;;;;;2.70;1.30;;;;;;;21.62;25.97;97664.97;5038563;28;20270;-71
2023/10/16 12:55:28;;;;;;;2.77;1.60;;;;;;;21.49;26.26;97659.66;5041680;28;20539;-71
2023/10/16 12:57:54;;;;;;;3.67;1.60;;;;;;;21.47;26.67;97651.03;5036124;28;20210;-70
2023/10/16 13:00:21;;;;;;;2.03;1.77;;;;;;;21.45;27.18;97653.94;5031713;28;20196;-70
2023/10/16 13:02:51;;;;;;;1.90;1.63;;;;;;;21.40;27.06;97650.25;5035380;28;20179;-70
2023/10/16 13:05:21;;;;;;;2.90;1.80;;;;;;;21.42;27.55;97641.00;5032611;28;20515;-70
2023/10/16 13:07:47;;;;;;;2.00;1.80;;;;;;;21.28;27.58;97642.94;5030243;28;20462;-70
2023/10/16 13:10:15;;;;;;;3.53;1.90;;;;;;;21.26;27.65;97633.47;5031632;28;20439;-70
2023/10/16 13:12:44;;;;;;;3.67;2.07;;;;;;;21.18;27.79;97634.53;5032472;28;20490;-71
2023/10/16 13:15:24;;;;;;;2.40;2.20;;;;;;;21.19;27.64;97636.16;5039528;28;20433;-70
2023/10/16 13:17:50;;;;;;;4.90;2.13;;;;;;;21.08;27.54;97631.50;5031309;28;20844;-70
2023/10/16 13:20:18;;;;;;;2.20;1.70;;;;;;;20.98;28.25;97631.94;5038583;28;20513;-70
2023/10/16 13:22:52;;;;;;;3.43;1.63;;;;;;;21.06;28.56;97622.88;5034640;28;20422;-69
2023/10/16 13:25:25;;;;;;;5.70;1.80;;;;;;;21.11;28.02;97623.09;5029028;28;20475;-70
2023/10/16 13:27:51;;;;;;;2.30;1.80;;;;;;;21.16;27.71;97623.28;5038300;28;20778;-70
2023/10/16 13:30:18;;;;;;;3.30;1.67;;;;;;;21.00;27.93;97614.72;5035318;28;20808;-70
2023/10/16 13:32:46;;;;;;;1.93;1.73;;;;;;;20.96;28.10;97621.47;5032381;28;20438;-69
2023/10/16 13:35:12;;;;;;;2.70;1.50;;;;;;;20.84;28.07;97621.31;5031883;28;20997;-69
2023/10/16 13:37:44;;;;;;;1.90;1.70;;;;;;;20.81;28.16;97626.22;5021305;28;20811;-70
2023/10/16 13:40:28;;;;;;;1.80;1.67;;;;;;;20.78;28.06;97618.66;5034140;28;20438;-70
2023/10/16 13:42:55;;;;;;;3.50;1.60;;;;;;;20.58;28.50;97622.13;5030640;28;20796;-69
2023/10/16 13:45:21;;;;;;;3.53;1.53;;;;;;;20.56;28.12;97624.19;5049210;28;20910;-70